sensor_id;sensor_type;location;lat;lon;timestamp;P1;durP1;ratioP1;P2;durP2;ratioP2
21901;SDS011;11115;46.038;14.612;2024-03-07T00:01:26;11.40;;;7.53;;
21901;SDS011;11115;46.038;14.612;2024-03-07T00:03:59;11.07;;;7.77;;
21901;SDS011;11115;46.038;14.612;2024-03-07T00:06:34;12.20;;;8.93;;
21901;SDS011;11115;46.038;14.612;2024-03-07T00:09:06;14.97;;;8.73;;
21901;SDS011;11115;46.038;14.612;2024-03-07T00:11:52;16.93;;;9.33;;
21901;SDS011;11115;46.038;14.612;2024-03-07T00:14:27;14.57;;;8.63;;
21901;SDS011;11115;46.038;14.612;2024-03-07T00:17:07;10.50;;;8.50;;
21901;SDS011;11115;46.038;14.612;2024-03-07T00:19:53;13.50;;;9.23;;
21901;SDS011;11115;46.038;14.612;2024-03-07T00:22:28;13.27;;;9.93;;
21901;SDS011;11115;46.038;14.612;2024-03-07T00:25:02;17.27;;;9.90;;
21901;SDS011;11115;46.038;14.612;2024-03-07T00:27:40;16.30;;;10.63;;
21901;SDS011;11115;46.038;14.612;2024-03-07T00:30:14;22.77;;;12.07;;
21901;SDS011;11115;46.038;14.612;2024-03-07T00:32:47;19.23;;;12.40;;
21901;SDS011;11115;46.038;14.612;2024-03-07T00:35:29;16.93;;;11.63;;
21901;SDS011;11115;46.038;14.612;2024-03-07T00:38:04;20.03;;;12.43;;
21901;SDS011;11115;46.038;14.612;2024-03-07T00:40:35;19.85;;;11.70;;
21901;SDS011;11115;46.038;14.612;2024-03-07T00:43:06;26.67;;;12.90;;
21901;SDS011;11115;46.038;14.612;2024-03-07T00:45:41;18.13;;;11.93;;
21901;SDS011;11115;46.038;14.612;2024-03-07T00:48:32;19.05;;;13.52;;
21901;SDS011;11115;46.038;14.612;2024-03-07T00:51:06;17.73;;;12.80;;
21901;SDS011;11115;46.038;14.612;2024-03-07T00:53:40;21.73;;;14.67;;
21901;SDS011;11115;46.038;14.612;2024-03-07T00:56:12;24.20;;;15.50;;
21901;SDS011;11115;46.038;14.612;2024-03-07T00:58:42;23.70;;;14.27;;
21901;SDS011;11115;46.038;14.612;2024-03-07T01:03:43;18.93;;;12.17;;
21901;SDS011;11115;46.038;14.612;2024-03-07T01:06:21;19.43;;;13.60;;
21901;SDS011;11115;46.038;14.612;2024-03-07T01:08:52;19.10;;;12.95;;
21901;SDS011;11115;46.038;14.612;2024-03-07T01:11:28;20.03;;;12.70;;
21901;SDS011;11115;46.038;14.612;2024-03-07T01:14:01;20.83;;;13.53;;
21901;SDS011;11115;46.038;14.612;2024-03-07T01:16:40;20.27;;;11.80;;
21901;SDS011;11115;46.038;14.612;2024-03-07T01:19:16;19.20;;;13.37;;
21901;SDS011;11115;46.038;14.612;2024-03-07T01:21:46;26.83;;;15.63;;
21901;SDS011;11115;46.038;14.612;2024-03-07T01:24:33;17.47;;;13.07;;
21901;SDS011;11115;46.038;14.612;2024-03-07T01:27:09;19.97;;;12.97;;
21901;SDS011;11115;46.038;14.612;2024-03-07T01:29:43;20.30;;;13.43;;
21901;SDS011;11115;46.038;14.612;2024-03-07T01:32:18;19.40;;;13.90;;
21901;SDS011;11115;46.038;14.612;2024-03-07T01:34:48;19.87;;;14.03;;
21901;SDS011;11115;46.038;14.612;2024-03-07T01:37:42;16.97;;;12.33;;
21901;SDS011;11115;46.038;14.612;2024-03-07T01:40:16;23.33;;;13.27;;
21901;SDS011;11115;46.038;14.612;2024-03-07T01:42:52;21.20;;;12.53;;
21901;SDS011;11115;46.038;14.612;2024-03-07T01:45:27;16.57;;;11.60;;
21901;SDS011;11115;46.038;14.612;2024-03-07T01:47:59;18.63;;;12.20;;
21901;SDS011;11115;46.038;14.612;2024-03-07T01:50:36;17.10;;;11.47;;
21901;SDS011;11115;46.038;14.612;2024-03-07T01:53:10;17.57;;;12.07;;
21901;SDS011;11115;46.038;14.612;2024-03-07T01:55:50;15.17;;;10.90;;
21901;SDS011;11115;46.038;14.612;2024-03-07T01:58:30;21.07;;;13.33;;
21901;SDS011;11115;46.038;14.612;2024-03-07T02:01:06;16.27;;;11.43;;
21901;SDS011;11115;46.038;14.612;2024-03-07T02:03:37;17.67;;;10.73;;
21901;SDS011;11115;46.038;14.612;2024-03-07T02:06:18;22.87;;;12.83;;
21901;SDS011;11115;46.038;14.612;2024-03-07T02:08:50;21.23;;;13.82;;
21901;SDS011;11115;46.038;14.612;2024-03-07T02:11:22;26.30;;;15.70;;
21901;SDS011;11115;46.038;14.612;2024-03-07T02:13:54;25.13;;;14.67;;
21901;SDS011;11115;46.038;14.612;2024-03-07T02:16:26;27.20;;;15.73;;
21901;SDS011;11115;46.038;14.612;2024-03-07T02:19:00;22.43;;;15.27;;
21901;SDS011;11115;46.038;14.612;2024-03-07T02:21:36;25.57;;;15.23;;
21901;SDS011;11115;46.038;14.612;2024-03-07T02:24:09;29.30;;;16.65;;
21901;SDS011;11115;46.038;14.612;2024-03-07T02:26:44;28.37;;;16.13;;
21901;SDS011;11115;46.038;14.612;2024-03-07T02:29:22;23.07;;;14.83;;
21901;SDS011;11115;46.038;14.612;2024-03-07T02:31:59;21.10;;;13.80;;
21901;SDS011;11115;46.038;14.612;2024-03-07T02:34:29;22.23;;;14.52;;
21901;SDS011;11115;46.038;14.612;2024-03-07T02:37:03;24.17;;;14.63;;
21901;SDS011;11115;46.038;14.612;2024-03-07T02:39:33;23.93;;;15.30;;
21901;SDS011;11115;46.038;14.612;2024-03-07T02:42:02;23.70;;;15.00;;
21901;SDS011;11115;46.038;14.612;2024-03-07T02:44:39;25.37;;;15.13;;
21901;SDS011;11115;46.038;14.612;2024-03-07T02:47:16;24.30;;;15.83;;
21901;SDS011;11115;46.038;14.612;2024-03-07T02:49:56;19.50;;;13.57;;
21901;SDS011;11115;46.038;14.612;2024-03-07T02:52:34;42.00;;;14.73;;
21901;SDS011;11115;46.038;14.612;2024-03-07T02:55:13;21.90;;;14.90;;
21901;SDS011;11115;46.038;14.612;2024-03-07T02:57:52;24.37;;;15.10;;
21901;SDS011;11115;46.038;14.612;2024-03-07T03:00:24;20.87;;;13.77;;
21901;SDS011;11115;46.038;14.612;2024-03-07T03:05:46;30.73;;;16.33;;
21901;SDS011;11115;46.038;14.612;2024-03-07T03:08:28;26.03;;;16.27;;
21901;SDS011;11115;46.038;14.612;2024-03-07T03:11:02;33.20;;;15.90;;
21901;SDS011;11115;46.038;14.612;2024-03-07T03:13:42;23.77;;;14.33;;
21901;SDS011;11115;46.038;14.612;2024-03-07T03:16:12;27.02;;;15.40;;
21901;SDS011;11115;46.038;14.612;2024-03-07T03:19:00;18.53;;;12.00;;
21901;SDS011;11115;46.038;14.612;2024-03-07T03:21:32;47.80;;;14.03;;
21901;SDS011;11115;46.038;14.612;2024-03-07T03:24:09;34.37;;;15.00;;
21901;SDS011;11115;46.038;14.612;2024-03-07T03:26:47;37.63;;;13.88;;
21901;SDS011;11115;46.038;14.612;2024-03-07T03:29:25;18.17;;;11.87;;
21901;SDS011;11115;46.038;14.612;2024-03-07T03:32:02;22.80;;;14.07;;
21901;SDS011;11115;46.038;14.612;2024-03-07T03:34:38;20.40;;;13.30;;
21901;SDS011;11115;46.038;14.612;2024-03-07T03:37:17;22.00;;;11.43;;
21901;SDS011;11115;46.038;14.612;2024-03-07T03:39:50;20.03;;;13.07;;
21901;SDS011;11115;46.038;14.612;2024-03-07T03:42:26;17.03;;;11.57;;
21901;SDS011;11115;46.038;14.612;2024-03-07T03:44:58;22.43;;;11.77;;
21901;SDS011;11115;46.038;14.612;2024-03-07T03:47:30;40.13;;;14.00;;
21901;SDS011;11115;46.038;14.612;2024-03-07T03:50:07;34.97;;;14.10;;
21901;SDS011;11115;46.038;14.612;2024-03-07T03:52:45;30.37;;;12.30;;
21901;SDS011;11115;46.038;14.612;2024-03-07T03:55:19;47.67;;;11.80;;
21901;SDS011;11115;46.038;14.612;2024-03-07T03:57:53;35.20;;;14.63;;
21901;SDS011;11115;46.038;14.612;2024-03-07T04:00:27;56.07;;;14.27;;
21901;SDS011;11115;46.038;14.612;2024-03-07T04:03:04;32.03;;;12.80;;
21901;SDS011;11115;46.038;14.612;2024-03-07T04:05:34;54.78;;;13.02;;
21901;SDS011;11115;46.038;14.612;2024-03-07T04:08:13;79.37;;;16.47;;
21901;SDS011;11115;46.038;14.612;2024-03-07T04:10:45;43.67;;;14.85;;
21901;SDS011;11115;46.038;14.612;2024-03-07T04:13:16;22.60;;;12.80;;
21901;SDS011;11115;46.038;14.612;2024-03-07T04:15:50;19.23;;;12.67;;
21901;SDS011;11115;46.038;14.612;2024-03-07T04:18:21;103.40;;;14.53;;
21901;SDS011;11115;46.038;14.612;2024-03-07T04:21:00;21.67;;;12.73;;
21901;SDS011;11115;46.038;14.612;2024-03-07T04:23:40;29.70;;;14.37;;
21901;SDS011;11115;46.038;14.612;2024-03-07T04:26:15;19.43;;;13.60;;
21901;SDS011;11115;46.038;14.612;2024-03-07T04:28:46;32.67;;;13.87;;
21901;SDS011;11115;46.038;14.612;2024-03-07T04:31:19;23.63;;;14.53;;
21901;SDS011;11115;46.038;14.612;2024-03-07T04:33:51;25.40;;;14.45;;
21901;SDS011;11115;46.038;14.612;2024-03-07T04:36:27;24.70;;;14.27;;
21901;SDS011;11115;46.038;14.612;2024-03-07T04:39:05;19.83;;;13.10;;
21901;SDS011;11115;46.038;14.612;2024-03-07T04:41:51;21.50;;;14.33;;
21901;SDS011;11115;46.038;14.612;2024-03-07T04:44:26;24.57;;;14.07;;
21901;SDS011;11115;46.038;14.612;2024-03-07T04:47:01;38.10;;;16.10;;
21901;SDS011;11115;46.038;14.612;2024-03-07T04:49:35;45.47;;;13.90;;
21901;SDS011;11115;46.038;14.612;2024-03-07T04:52:10;30.90;;;14.23;;
21901;SDS011;11115;46.038;14.612;2024-03-07T04:54:44;31.67;;;15.30;;
21901;SDS011;11115;46.038;14.612;2024-03-07T04:57:18;49.17;;;15.93;;
21901;SDS011;11115;46.038;14.612;2024-03-07T04:59:56;61.63;;;15.77;;
21901;SDS011;11115;46.038;14.612;2024-03-07T05:02:40;47.17;;;15.23;;
21901;SDS011;11115;46.038;14.612;2024-03-07T05:05:14;46.07;;;14.97;;
21901;SDS011;11115;46.038;14.612;2024-03-07T05:07:56;24.57;;;13.87;;
21901;SDS011;11115;46.038;14.612;2024-03-07T05:10:28;25.98;;;13.63;;
21901;SDS011;11115;46.038;14.612;2024-03-07T05:13:06;35.07;;;13.53;;
21901;SDS011;11115;46.038;14.612;2024-03-07T05:15:42;31.17;;;13.20;;
21901;SDS011;11115;46.038;14.612;2024-03-07T05:18:16;21.97;;;13.40;;
21901;SDS011;11115;46.038;14.612;2024-03-07T05:20:49;57.53;;;14.97;;
21901;SDS011;11115;46.038;14.612;2024-03-07T05:23:22;39.70;;;15.80;;
21901;SDS011;11115;46.038;14.612;2024-03-07T05:25:58;43.03;;;14.40;;
21901;SDS011;11115;46.038;14.612;2024-03-07T05:28:35;37.20;;;14.17;;
21901;SDS011;11115;46.038;14.612;2024-03-07T05:31:12;33.23;;;13.07;;
21901;SDS011;11115;46.038;14.612;2024-03-07T05:33:42;23.00;;;13.63;;
21901;SDS011;11115;46.038;14.612;2024-03-07T05:36:13;33.85;;;13.38;;
21901;SDS011;11115;46.038;14.612;2024-03-07T05:38:46;57.37;;;16.70;;
21901;SDS011;11115;46.038;14.612;2024-03-07T05:41:24;67.33;;;17.10;;
21901;SDS011;11115;46.038;14.612;2024-03-07T05:44:06;36.10;;;16.50;;
21901;SDS011;11115;46.038;14.612;2024-03-07T05:46:43;76.83;;;15.23;;
21901;SDS011;11115;46.038;14.612;2024-03-07T05:49:16;56.00;;;14.30;;
21901;SDS011;11115;46.038;14.612;2024-03-07T05:51:46;59.03;;;12.87;;
21901;SDS011;11115;46.038;14.612;2024-03-07T05:54:22;29.73;;;12.27;;
21901;SDS011;11115;46.038;14.612;2024-03-07T05:57:02;48.53;;;14.63;;
21901;SDS011;11115;46.038;14.612;2024-03-07T05:59:37;33.27;;;14.73;;
21901;SDS011;11115;46.038;14.612;2024-03-07T06:02:12;62.80;;;13.90;;
21901;SDS011;11115;46.038;14.612;2024-03-07T06:04:46;90.67;;;15.90;;
21901;SDS011;11115;46.038;14.612;2024-03-07T06:07:30;32.33;;;12.40;;
21901;SDS011;11115;46.038;14.612;2024-03-07T06:10:02;77.17;;;13.53;;
21901;SDS011;11115;46.038;14.612;2024-03-07T06:12:42;159.37;;;13.77;;
21901;SDS011;11115;46.038;14.612;2024-03-07T06:15:36;94.77;;;14.83;;
21901;SDS011;11115;46.038;14.612;2024-03-07T06:18:18;114.45;;;12.98;;
21901;SDS011;11115;46.038;14.612;2024-03-07T06:20:52;89.87;;;12.97;;
21901;SDS011;11115;46.038;14.612;2024-03-07T06:23:30;51.33;;;13.53;;
21901;SDS011;11115;46.038;14.612;2024-03-07T06:26:00;52.28;;;13.00;;
21901;SDS011;11115;46.038;14.612;2024-03-07T06:29:03;74.33;;;14.33;;
21901;SDS011;11115;46.038;14.612;2024-03-07T06:31:38;22.37;;;12.57;;
21901;SDS011;11115;46.038;14.612;2024-03-07T06:34:12;88.17;;;13.67;;
21901;SDS011;11115;46.038;14.612;2024-03-07T06:36:48;25.87;;;12.37;;
21901;SDS011;11115;46.038;14.612;2024-03-07T06:39:23;56.43;;;13.53;;
21901;SDS011;11115;46.038;14.612;2024-03-07T06:41:57;59.67;;;13.57;;
21901;SDS011;11115;46.038;14.612;2024-03-07T06:44:28;49.70;;;14.07;;
21901;SDS011;11115;46.038;14.612;2024-03-07T06:46:58;60.57;;;31.00;;
21901;SDS011;11115;46.038;14.612;2024-03-07T06:49:31;44.30;;;12.97;;
21901;SDS011;11115;46.038;14.612;2024-03-07T06:52:03;41.97;;;12.80;;
21901;SDS011;11115;46.038;14.612;2024-03-07T06:54:39;43.43;;;12.37;;
21901;SDS011;11115;46.038;14.612;2024-03-07T06:57:17;26.50;;;12.00;;
21901;SDS011;11115;46.038;14.612;2024-03-07T06:59:55;30.90;;;11.60;;
21901;SDS011;11115;46.038;14.612;2024-03-07T07:02:46;23.60;;;11.60;;
21901;SDS011;11115;46.038;14.612;2024-03-07T07:05:19;27.70;;;14.17;;
21901;SDS011;11115;46.038;14.612;2024-03-07T07:07:50;23.63;;;12.53;;
21901;SDS011;11115;46.038;14.612;2024-03-07T07:10:29;25.23;;;14.97;;
21901;SDS011;11115;46.038;14.612;2024-03-07T07:13:01;29.43;;;14.57;;
21901;SDS011;11115;46.038;14.612;2024-03-07T07:15:39;27.73;;;16.53;;
21901;SDS011;11115;46.038;14.612;2024-03-07T07:18:16;25.63;;;16.70;;
21901;SDS011;11115;46.038;14.612;2024-03-07T07:20:52;28.43;;;16.80;;
21901;SDS011;11115;46.038;14.612;2024-03-07T07:23:31;28.90;;;17.37;;
21901;SDS011;11115;46.038;14.612;2024-03-07T07:26:06;26.13;;;16.93;;
21901;SDS011;11115;46.038;14.612;2024-03-07T07:28:38;23.00;;;15.03;;
21901;SDS011;11115;46.038;14.612;2024-03-07T07:31:18;24.27;;;15.93;;
21901;SDS011;11115;46.038;14.612;2024-03-07T07:33:54;30.23;;;15.47;;
21901;SDS011;11115;46.038;14.612;2024-03-07T07:36:35;28.03;;;16.07;;
21901;SDS011;11115;46.038;14.612;2024-03-07T07:39:09;23.23;;;14.27;;
21901;SDS011;11115;46.038;14.612;2024-03-07T07:41:48;29.48;;;15.23;;
21901;SDS011;11115;46.038;14.612;2024-03-07T07:44:19;25.45;;;16.38;;
21901;SDS011;11115;46.038;14.612;2024-03-07T07:46:55;21.57;;;14.27;;
21901;SDS011;11115;46.038;14.612;2024-03-07T07:49:30;21.97;;;14.77;;
21901;SDS011;11115;46.038;14.612;2024-03-07T07:51:59;22.40;;;14.77;;
21901;SDS011;11115;46.038;14.612;2024-03-07T07:54:33;20.93;;;14.47;;
21901;SDS011;11115;46.038;14.612;2024-03-07T07:57:11;21.93;;;14.97;;
21901;SDS011;11115;46.038;14.612;2024-03-07T07:59:43;24.67;;;14.60;;
21901;SDS011;11115;46.038;14.612;2024-03-07T08:02:20;22.53;;;14.47;;
21901;SDS011;11115;46.038;14.612;2024-03-07T08:05:05;20.83;;;14.37;;
21901;SDS011;11115;46.038;14.612;2024-03-07T08:07:41;25.80;;;14.67;;
21901;SDS011;11115;46.038;14.612;2024-03-07T08:10:15;23.80;;;15.30;;
21901;SDS011;11115;46.038;14.612;2024-03-07T08:12:47;22.17;;;15.17;;
21901;SDS011;11115;46.038;14.612;2024-03-07T08:15:28;20.30;;;14.20;;
21901;SDS011;11115;46.038;14.612;2024-03-07T08:18:10;24.17;;;15.30;;
21901;SDS011;11115;46.038;14.612;2024-03-07T08:20:45;24.40;;;16.37;;
21901;SDS011;11115;46.038;14.612;2024-03-07T08:23:22;22.00;;;15.20;;
21901;SDS011;11115;46.038;14.612;2024-03-07T08:26:06;30.40;;;16.48;;
21901;SDS011;11115;46.038;14.612;2024-03-07T08:28:52;24.53;;;15.83;;
21901;SDS011;11115;46.038;14.612;2024-03-07T08:31:29;24.13;;;16.07;;
21901;SDS011;11115;46.038;14.612;2024-03-07T08:34:02;23.07;;;15.73;;
21901;SDS011;11115;46.038;14.612;2024-03-07T08:36:33;23.63;;;15.33;;
21901;SDS011;11115;46.038;14.612;2024-03-07T08:39:07;27.93;;;18.63;;
21901;SDS011;11115;46.038;14.612;2024-03-07T08:41:41;27.03;;;16.37;;
21901;SDS011;11115;46.038;14.612;2024-03-07T08:44:16;21.77;;;14.43;;
21901;SDS011;11115;46.038;14.612;2024-03-07T08:46:55;22.33;;;15.27;;
21901;SDS011;11115;46.038;14.612;2024-03-07T08:49:25;22.48;;;14.82;;
21901;SDS011;11115;46.038;14.612;2024-03-07T08:51:57;24.70;;;16.40;;
21901;SDS011;11115;46.038;14.612;2024-03-07T08:54:38;28.25;;;18.25;;
21901;SDS011;11115;46.038;14.612;2024-03-07T08:57:09;24.13;;;17.07;;
21901;SDS011;11115;46.038;14.612;2024-03-07T08:59:44;25.37;;;17.67;;
21901;SDS011;11115;46.038;14.612;2024-03-07T09:02:18;25.70;;;17.23;;
21901;SDS011;11115;46.038;14.612;2024-03-07T09:04:55;25.43;;;18.57;;
21901;SDS011;11115;46.038;14.612;2024-03-07T09:07:23;24.87;;;17.23;;
21901;SDS011;11115;46.038;14.612;2024-03-07T09:10:06;26.50;;;17.87;;
21901;SDS011;11115;46.038;14.612;2024-03-07T09:12:39;22.50;;;15.70;;
21901;SDS011;11115;46.038;14.612;2024-03-07T09:15:26;24.63;;;17.33;;
21901;SDS011;11115;46.038;14.612;2024-03-07T09:17:57;23.37;;;16.10;;
21901;SDS011;11115;46.038;14.612;2024-03-07T09:20:31;26.30;;;16.33;;
21901;SDS011;11115;46.038;14.612;2024-03-07T09:23:10;24.77;;;15.67;;
21901;SDS011;11115;46.038;14.612;2024-03-07T09:25:51;22.70;;;16.75;;
21901;SDS011;11115;46.038;14.612;2024-03-07T09:28:27;22.43;;;15.53;;
21901;SDS011;11115;46.038;14.612;2024-03-07T09:31:04;24.07;;;15.07;;
21901;SDS011;11115;46.038;14.612;2024-03-07T09:33:45;23.38;;;17.00;;
21901;SDS011;11115;46.038;14.612;2024-03-07T09:36:18;26.83;;;17.50;;
21901;SDS011;11115;46.038;14.612;2024-03-07T09:38:50;19.80;;;13.63;;
21901;SDS011;11115;46.038;14.612;2024-03-07T09:41:25;23.03;;;13.53;;
21901;SDS011;11115;46.038;14.612;2024-03-07T09:44:01;20.80;;;14.20;;
21901;SDS011;11115;46.038;14.612;2024-03-07T09:46:38;20.40;;;14.50;;
21901;SDS011;11115;46.038;14.612;2024-03-07T09:49:19;18.03;;;12.40;;
21901;SDS011;11115;46.038;14.612;2024-03-07T09:51:54;19.13;;;13.10;;
21901;SDS011;11115;46.038;14.612;2024-03-07T09:54:36;25.63;;;15.00;;
21901;SDS011;11115;46.038;14.612;2024-03-07T09:57:17;19.83;;;13.80;;
21901;SDS011;11115;46.038;14.612;2024-03-07T09:59:50;18.80;;;11.77;;
21901;SDS011;11115;46.038;14.612;2024-03-07T10:02:24;18.93;;;10.80;;
21901;SDS011;11115;46.038;14.612;2024-03-07T10:04:54;16.33;;;11.90;;
21901;SDS011;11115;46.038;14.612;2024-03-07T10:07:35;19.60;;;12.00;;
21901;SDS011;11115;46.038;14.612;2024-03-07T10:10:10;18.30;;;9.83;;
21901;SDS011;11115;46.038;14.612;2024-03-07T10:12:48;14.23;;;9.43;;
21901;SDS011;11115;46.038;14.612;2024-03-07T10:15:29;16.63;;;9.00;;
21901;SDS011;11115;46.038;14.612;2024-03-07T10:18:07;16.73;;;8.73;;
21901;SDS011;11115;46.038;14.612;2024-03-07T10:20:43;14.90;;;9.67;;
21901;SDS011;11115;46.038;14.612;2024-03-07T10:23:20;13.70;;;9.37;;
21901;SDS011;11115;46.038;14.612;2024-03-07T10:25:52;21.27;;;9.70;;
21901;SDS011;11115;46.038;14.612;2024-03-07T10:28:27;16.07;;;8.93;;
21901;SDS011;11115;46.038;14.612;2024-03-07T10:30:59;16.43;;;8.83;;
21901;SDS011;11115;46.038;14.612;2024-03-07T10:33:42;13.90;;;8.93;;
21901;SDS011;11115;46.038;14.612;2024-03-07T10:36:18;13.23;;;8.93;;
21901;SDS011;11115;46.038;14.612;2024-03-07T10:39:03;12.30;;;8.40;;
21901;SDS011;11115;46.038;14.612;2024-03-07T10:41:47;14.07;;;8.97;;
21901;SDS011;11115;46.038;14.612;2024-03-07T10:44:47;12.73;;;7.93;;
21901;SDS011;11115;46.038;14.612;2024-03-07T10:47:35;10.43;;;7.73;;
21901;SDS011;11115;46.038;14.612;2024-03-07T10:53:34;11.87;;;8.07;;
21901;SDS011;11115;46.038;14.612;2024-03-07T10:57:20;11.73;;;8.23;;
21901;SDS011;11115;46.038;14.612;2024-03-07T11:00:29;12.43;;;8.33;;
21901;SDS011;11115;46.038;14.612;2024-03-07T11:03:40;14.07;;;7.63;;
21901;SDS011;11115;46.038;14.612;2024-03-07T11:06:20;12.33;;;7.90;;
21901;SDS011;11115;46.038;14.612;2024-03-07T11:09:24;10.40;;;7.10;;
21901;SDS011;11115;46.038;14.612;2024-03-07T11:12:22;13.07;;;7.73;;
21901;SDS011;11115;46.038;14.612;2024-03-07T11:15:18;10.23;;;7.73;;
21901;SDS011;11115;46.038;14.612;2024-03-07T11:18:11;11.13;;;7.27;;
21901;SDS011;11115;46.038;14.612;2024-03-07T11:21:06;10.00;;;7.37;;
21901;SDS011;11115;46.038;14.612;2024-03-07T11:23:53;12.70;;;7.50;;
21901;SDS011;11115;46.038;14.612;2024-03-07T11:26:59;9.63;;;7.70;;
21901;SDS011;11115;46.038;14.612;2024-03-07T11:29:49;11.10;;;7.27;;
21901;SDS011;11115;46.038;14.612;2024-03-07T11:32:47;10.37;;;7.07;;
21901;SDS011;11115;46.038;14.612;2024-03-07T11:35:42;13.03;;;7.80;;
21901;SDS011;11115;46.038;14.612;2024-03-07T11:38:47;9.53;;;7.07;;
21901;SDS011;11115;46.038;14.612;2024-03-07T11:41:25;11.17;;;7.30;;
21901;SDS011;11115;46.038;14.612;2024-03-07T11:44:01;10.90;;;7.00;;
21901;SDS011;11115;46.038;14.612;2024-03-07T11:46:40;11.23;;;7.03;;
21901;SDS011;11115;46.038;14.612;2024-03-07T11:49:13;11.23;;;7.17;;
21901;SDS011;11115;46.038;14.612;2024-03-07T11:51:44;10.93;;;7.07;;
21901;SDS011;11115;46.038;14.612;2024-03-07T11:54:18;12.90;;;7.03;;
21901;SDS011;11115;46.038;14.612;2024-03-07T11:56:55;12.13;;;6.60;;
21901;SDS011;11115;46.038;14.612;2024-03-07T11:59:34;10.50;;;7.83;;
21901;SDS011;11115;46.038;14.612;2024-03-07T12:02:06;9.67;;;7.03;;
21901;SDS011;11115;46.038;14.612;2024-03-07T12:04:42;12.13;;;7.13;;
21901;SDS011;11115;46.038;14.612;2024-03-07T12:07:20;10.43;;;7.87;;
21901;SDS011;11115;46.038;14.612;2024-03-07T12:10:00;12.53;;;7.07;;
21901;SDS011;11115;46.038;14.612;2024-03-07T12:12:38;7.40;;;6.30;;
21901;SDS011;11115;46.038;14.612;2024-03-07T12:15:09;7.90;;;6.63;;
21901;SDS011;11115;46.038;14.612;2024-03-07T12:17:47;14.77;;;6.77;;
21901;SDS011;11115;46.038;14.612;2024-03-07T12:20:19;9.60;;;6.80;;
21901;SDS011;11115;46.038;14.612;2024-03-07T12:23:08;10.93;;;6.00;;
21901;SDS011;11115;46.038;14.612;2024-03-07T12:25:43;8.97;;;5.97;;
21901;SDS011;11115;46.038;14.612;2024-03-07T12:28:18;9.63;;;6.70;;
21901;SDS011;11115;46.038;14.612;2024-03-07T12:30:56;10.57;;;6.65;;
21901;SDS011;11115;46.038;14.612;2024-03-07T12:33:38;7.47;;;6.18;;
21901;SDS011;11115;46.038;14.612;2024-03-07T12:36:11;10.00;;;6.50;;
21901;SDS011;11115;46.038;14.612;2024-03-07T12:38:54;9.40;;;6.50;;
21901;SDS011;11115;46.038;14.612;2024-03-07T12:41:44;10.33;;;6.27;;
21901;SDS011;11115;46.038;14.612;2024-03-07T12:44:26;9.83;;;5.80;;
21901;SDS011;11115;46.038;14.612;2024-03-07T12:47:02;6.67;;;5.70;;
21901;SDS011;11115;46.038;14.612;2024-03-07T12:49:39;12.47;;;6.57;;
21901;SDS011;11115;46.038;14.612;2024-03-07T12:52:20;8.67;;;6.67;;
21901;SDS011;11115;46.038;14.612;2024-03-07T12:54:55;9.97;;;6.90;;
21901;SDS011;11115;46.038;14.612;2024-03-07T12:57:29;9.57;;;6.87;;
21901;SDS011;11115;46.038;14.612;2024-03-07T13:00:07;9.83;;;6.83;;
21901;SDS011;11115;46.038;14.612;2024-03-07T13:02:49;11.02;;;6.60;;
21901;SDS011;11115;46.038;14.612;2024-03-07T13:05:18;9.27;;;7.37;;
21901;SDS011;11115;46.038;14.612;2024-03-07T13:07:54;14.73;;;6.93;;
21901;SDS011;11115;46.038;14.612;2024-03-07T13:10:44;8.87;;;7.10;;
21901;SDS011;11115;46.038;14.612;2024-03-07T13:13:21;8.87;;;6.83;;
21901;SDS011;11115;46.038;14.612;2024-03-07T13:16:00;15.90;;;7.23;;
21901;SDS011;11115;46.038;14.612;2024-03-07T13:18:40;10.57;;;7.87;;
21901;SDS011;11115;46.038;14.612;2024-03-07T13:21:14;14.30;;;8.90;;
21901;SDS011;11115;46.038;14.612;2024-03-07T13:24:01;13.37;;;9.80;;
21901;SDS011;11115;46.038;14.612;2024-03-07T13:26:44;11.67;;;8.53;;
21901;SDS011;11115;46.038;14.612;2024-03-07T13:29:22;11.57;;;8.53;;
21901;SDS011;11115;46.038;14.612;2024-03-07T13:31:55;10.67;;;8.43;;
21901;SDS011;11115;46.038;14.612;2024-03-07T13:34:41;11.40;;;9.10;;
21901;SDS011;11115;46.038;14.612;2024-03-07T13:37:13;14.55;;;10.52;;
21901;SDS011;11115;46.038;14.612;2024-03-07T13:39:49;13.03;;;9.43;;
21901;SDS011;11115;46.038;14.612;2024-03-07T13:42:21;9.80;;;8.47;;
21901;SDS011;11115;46.038;14.612;2024-03-07T13:44:57;11.30;;;8.60;;
21901;SDS011;11115;46.038;14.612;2024-03-07T13:47:31;11.67;;;9.30;;
21901;SDS011;11115;46.038;14.612;2024-03-07T13:50:15;11.70;;;8.13;;
21901;SDS011;11115;46.038;14.612;2024-03-07T13:53:19;17.60;;;10.50;;
21901;SDS011;11115;46.038;14.612;2024-03-07T14:02:48;14.43;;;10.03;;
21901;SDS011;11115;46.038;14.612;2024-03-07T14:27:37;9.20;;;7.80;;
21901;SDS011;11115;46.038;14.612;2024-03-07T14:33:23;14.63;;;8.53;;
21901;SDS011;11115;46.038;14.612;2024-03-07T14:36:07;10.33;;;7.90;;
21901;SDS011;11115;46.038;14.612;2024-03-07T14:38:43;9.87;;;7.20;;
21901;SDS011;11115;46.038;14.612;2024-03-07T14:44:53;9.73;;;5.70;;
21901;SDS011;11115;46.038;14.612;2024-03-07T14:47:33;8.03;;;6.57;;
21901;SDS011;11115;46.038;14.612;2024-03-07T14:50:07;12.67;;;7.37;;
21901;SDS011;11115;46.038;14.612;2024-03-07T14:52:49;8.52;;;6.40;;
21901;SDS011;11115;46.038;14.612;2024-03-07T14:55:34;8.68;;;6.65;;
21901;SDS011;11115;46.038;14.612;2024-03-07T14:58:14;9.00;;;6.72;;
21901;SDS011;11115;46.038;14.612;2024-03-07T15:00:55;6.93;;;5.28;;
21901;SDS011;11115;46.038;14.612;2024-03-07T15:03:40;10.05;;;5.40;;
21901;SDS011;11115;46.038;14.612;2024-03-07T15:06:16;7.05;;;5.97;;
21901;SDS011;11115;46.038;14.612;2024-03-07T15:08:54;6.78;;;5.45;;
21901;SDS011;11115;46.038;14.612;2024-03-07T15:11:37;7.45;;;5.30;;
21901;SDS011;11115;46.038;14.612;2024-03-07T15:14:15;8.15;;;5.68;;
21901;SDS011;11115;46.038;14.612;2024-03-07T15:17:01;6.82;;;4.45;;
21901;SDS011;11115;46.038;14.612;2024-03-07T15:19:40;8.85;;;5.88;;
21901;SDS011;11115;46.038;14.612;2024-03-07T15:22:10;6.13;;;5.13;;
21901;SDS011;11115;46.038;14.612;2024-03-07T15:24:57;6.13;;;5.53;;
21901;SDS011;11115;46.038;14.612;2024-03-07T15:27:39;7.03;;;5.47;;
21901;SDS011;11115;46.038;14.612;2024-03-07T15:30:18;7.40;;;5.60;;
21901;SDS011;11115;46.038;14.612;2024-03-07T15:33:22;6.45;;;4.85;;
21901;SDS011;11115;46.038;14.612;2024-03-07T15:36:02;7.47;;;5.57;;
21901;SDS011;11115;46.038;14.612;2024-03-07T15:38:36;8.40;;;6.13;;
21901;SDS011;11115;46.038;14.612;2024-03-07T15:41:16;6.83;;;6.13;;
21901;SDS011;11115;46.038;14.612;2024-03-07T15:43:55;8.10;;;5.97;;
21901;SDS011;11115;46.038;14.612;2024-03-07T15:46:29;6.23;;;5.13;;
21901;SDS011;11115;46.038;14.612;2024-03-07T15:49:04;6.47;;;5.33;;
21901;SDS011;11115;46.038;14.612;2024-03-07T15:51:42;7.80;;;6.03;;
21901;SDS011;11115;46.038;14.612;2024-03-07T15:54:20;8.77;;;5.37;;
21901;SDS011;11115;46.038;14.612;2024-03-07T15:56:53;9.33;;;6.53;;
21901;SDS011;11115;46.038;14.612;2024-03-07T15:59:34;7.80;;;5.80;;
21901;SDS011;11115;46.038;14.612;2024-03-07T16:02:08;7.57;;;6.23;;